Time;durP1;ratioP1;P1;durP2;ratioP2;P2;SDS_P1;SDS_P2;PMS_P1;PMS_P2;Temp;Humidity;BMP_temperature;BMP_pressure;BME280_temperature;BME280_humidity;BME280_pressure;Samples;Min_cycle;Max_cycle;Signal;HPM_P1;HPM_P2
2023/08/10 00:01:17;;;;;;;9.60;4.97;;;;;;;18.90;60.22;100720.08;125385;1099;104211;-77
2023/08/10 00:03:51;;;;;;;16.03;5.30;;;;;;;18.86;59.79;100719.19;126245;1098;104191;-77
2023/08/10 00:06:22;;;;;;;14.40;4.90;;;;;;;18.73;60.13;100714.63;125272;1099;101849;-77
2023/08/10 00:08:54;;;;;;;14.00;5.20;;;;;;;18.65;60.58;100715.50;125246;1099;104195;-77
2023/08/10 00:11:25;;;;;;;18.70;5.57;;;;;;;18.55;60.79;100718.97;125315;1099;104242;-77
2023/08/10 00:13:57;;;;;;;14.17;5.53;;;;;;;18.44;60.72;100724.20;125338;1099;101953;-77
2023/08/10 00:16:28;;;;;;;15.57;5.97;;;;;;;18.36;61.29;100733.90;125233;1099;104073;-77
2023/08/10 00:19:00;;;;;;;16.00;5.53;;;;;;;18.26;61.22;100727.63;125191;1099;101833;-77
2023/08/10 00:21:32;;;;;;;15.03;6.07;;;;;;;18.19;61.77;100731.10;125106;1099;102290;-77
2023/08/10 00:24:03;;;;;;;15.23;5.63;;;;;;;18.16;61.97;100727.55;125150;1099;104249;-77
2023/08/10 00:26:35;;;;;;;17.33;6.40;;;;;;;18.13;61.95;100731.93;125113;1099;104304;-76
2023/08/10 00:29:06;;;;;;;17.40;6.10;;;;;;;18.10;62.33;100731.91;125100;1099;104214;-76
2023/08/10 00:31:37;;;;;;;16.67;5.50;;;;;;;18.01;62.13;100733.59;125311;1099;104220;-78
2023/08/10 00:34:09;;;;;;;16.97;5.63;;;;;;;17.91;63.08;100736.17;125356;1099;102303;-77
2023/08/10 00:36:40;;;;;;;14.13;5.87;;;;;;;17.80;63.15;100740.46;124724;1099;104229;-77
2023/08/10 00:39:12;;;;;;;15.05;5.65;;;;;;;17.75;63.15;100747.50;125331;1099;101958;-77
2023/08/10 00:41:43;;;;;;;19.25;6.50;;;;;;;17.68;63.93;100732.37;124764;1099;102472;-77
2023/08/10 00:44:16;;;;;;;17.23;5.60;;;;;;;17.66;63.53;100734.12;124681;1099;104175;-76
2023/08/10 00:46:49;;;;;;;14.53;5.35;;;;;;;17.67;63.98;100739.45;125234;1099;104265;-77
2023/08/10 00:49:21;;;;;;;15.63;6.10;;;;;;;17.75;63.64;100736.88;125306;1099;101983;-77
2023/08/10 00:51:52;;;;;;;14.40;5.80;;;;;;;17.84;63.92;100742.28;125187;1099;104404;-76
2023/08/10 00:54:24;;;;;;;17.87;5.57;;;;;;;17.89;63.90;100740.59;125143;1099;102041;-77
2023/08/10 00:56:55;;;;;;;12.40;5.20;;;;;;;17.87;63.95;100741.40;125185;1099;104220;-76
2023/08/10 00:59:31;;;;;;;14.43;5.37;;;;;;;17.85;64.01;100740.50;125156;1099;104188;-77
2023/08/10 01:02:02;;;;;;;17.03;5.93;;;;;;;17.85;64.05;100738.73;125152;1099;101945;-76
2023/08/10 01:04:34;;;;;;;13.90;5.43;;;;;;;17.86;64.11;100743.17;125162;1099;102087;-77
2023/08/10 01:07:14;;;;;;;22.97;5.60;;;;;;;17.86;64.18;100736.98;126321;1098;104049;-77
2023/08/10 01:09:50;;;;;;;17.43;5.97;;;;;;;17.79;64.45;100733.36;125114;1099;104179;-76
2023/08/10 01:12:29;;;;;;;17.43;5.63;;;;;;;17.74;64.68;100735.97;124995;1099;104076;-76
2023/08/10 01:15:08;;;;;;;17.07;5.87;;;;;;;17.73;64.73;100730.64;125117;1099;104254;-77
2023/08/10 01:17:44;;;;;;;19.63;5.73;;;;;;;17.69;64.57;100736.81;124977;1098;104162;-76
2023/08/10 01:20:18;;;;;;;21.00;6.60;;;;;;;17.59;65.17;100728.76;124978;1099;104271;-76
2023/08/10 01:22:59;;;;;;;17.75;6.42;;;;;;;17.49;65.27;100729.52;124993;1099;104191;-77
2023/08/10 01:25:30;;;;;;;16.93;6.00;;;;;;;17.40;65.08;100729.41;125201;1099;104166;-77
2023/08/10 01:28:03;;;;;;;21.03;6.30;;;;;;;17.33;65.36;100724.93;125219;1098;101865;-77
2023/08/10 01:30:34;;;;;;;17.77;5.63;;;;;;;17.26;65.51;100723.95;125096;1099;104166;-77
2023/08/10 01:33:08;;;;;;;16.47;5.90;;;;;;;17.20;66.08;100722.13;125067;1099;102188;-76
2023/08/10 01:35:37;;;;;;;;;;;;;;;17.10;68.98;100725.53;125089;1099;102077;-77
2023/08/10 01:38:10;;;;;;;17.40;5.93;;;;;;;17.02;67.12;100719.25;125046;1099;101976;-77
2023/08/10 01:40:42;;;;;;;14.50;5.33;;;;;;;16.97;66.79;100729.80;125072;1099;101910;-77
2023/08/10 01:43:13;;;;;;;15.13;5.87;;;;;;;16.93;67.56;100721.78;125662;1099;104175;-77
2023/08/10 01:45:49;;;;;;;18.30;6.27;;;;;;;16.91;67.82;100726.14;125172;1099;101932;-77
2023/08/10 01:48:26;;;;;;;17.33;5.93;;;;;;;16.88;67.53;100735.84;125121;1099;101836;-76
2023/08/10 01:51:01;;;;;;;17.37;5.60;;;;;;;16.86;67.95;100731.39;124873;1099;104195;-77
2023/08/10 01:53:36;;;;;;;17.40;5.77;;;;;;;16.84;68.01;100733.09;125045;1099;101791;-77
2023/08/10 01:56:08;;;;;;;21.03;6.50;;;;;;;16.85;67.76;100734.89;125011;1099;104166;-76
2023/08/10 01:58:40;;;;;;;21.53;6.17;;;;;;;16.83;67.51;100729.57;125068;1099;101874;-76
2023/08/10 02:01:12;;;;;;;18.87;6.13;;;;;;;16.81;67.85;100730.41;124967;1098;104166;-76
2023/08/10 02:03:43;;;;;;;14.20;5.80;;;;;;;16.76;68.11;100748.02;125004;1099;104185;-77
2023/08/10 02:06:14;;;;;;;17.73;5.93;;;;;;;16.71;67.54;100747.94;125042;1099;102244;-77
2023/08/10 02:08:47;;;;;;;16.27;5.80;;;;;;;16.66;67.98;100739.05;125090;1099;102360;-78
2023/08/10 02:11:20;;;;;;;14.43;5.83;;;;;;;16.62;68.18;100742.51;125044;1099;101951;-77
2023/08/10 02:13:51;;;;;;;19.10;6.17;;;;;;;16.57;69.14;100742.44;125230;1099;102264;-76
2023/08/10 02:16:23;;;;;;;19.75;6.40;;;;;;;16.51;69.98;100745.87;124634;1099;104235;-76
2023/08/10 02:18:54;;;;;;;16.77;6.30;;;;;;;16.48;69.43;100740.53;125011;1099;104268;-76
2023/08/10 02:21:26;;;;;;;21.87;6.53;;;;;;;16.46;69.68;100750.22;125019;1099;102086;-77
2023/08/10 02:23:58;;;;;;;15.93;6.13;;;;;;;16.47;69.72;100749.36;124573;1099;104377;-77
2023/08/10 02:26:29;;;;;;;18.67;5.80;;;;;;;16.46;69.71;100752.88;125009;1099;104201;-77
2023/08/10 02:29:00;;;;;;;15.37;6.17;;;;;;;16.46;69.57;100760.81;125024;1099;104175;-77
2023/08/10 02:31:32;;;;;;;17.67;6.13;;;;;;;16.51;70.09;100764.41;125273;1099;102270;-76
2023/08/10 02:34:04;;;;;;;25.57;6.23;;;;;;;16.59;69.23;100758.36;125189;1099;104191;-78
2023/08/10 02:36:35;;;;;;;21.00;6.20;;;;;;;16.62;69.83;100761.05;125191;1099;102118;-77
2023/08/10 02:39:07;;;;;;;19.07;6.37;;;;;;;16.62;69.40;100761.94;125107;1098;104268;-76
2023/08/10 02:41:38;;;;;;;15.90;5.83;;;;;;;16.62;70.03;100761.94;125086;1099;104207;-77
2023/08/10 02:44:10;;;;;;;17.70;6.03;;;;;;;16.64;69.57;100767.25;125140;1099;102629;-77
2023/08/10 02:46:42;;;;;;;15.70;6.00;;;;;;;16.68;69.99;100769.98;124686;1099;102165;-78
2023/08/10 02:49:26;;;;;;;20.33;6.60;;;;;;;16.71;70.02;100777.97;125250;1099;104165;-77
2023/08/10 02:51:58;;;;;;;19.20;6.47;;;;;;;16.66;70.68;100766.42;125663;1099;101935;-77
2023/08/10 02:54:30;;;;;;;24.33;6.40;;;;;;;16.64;70.08;100775.20;125244;1099;104271;-77
2023/08/10 02:57:02;;;;;;;18.60;6.73;;;;;;;16.59;70.70;100776.91;125247;1099;104163;-77
2023/08/10 02:59:33;;;;;;;14.03;6.17;;;;;;;16.52;70.34;100771.51;125259;1098;102202;-77
2023/08/10 03:02:05;;;;;;;17.70;6.37;;;;;;;16.49;69.90;100775.87;124732;1099;102083;-77
2023/08/10 03:04:37;;;;;;;21.50;7.03;;;;;;;16.45;70.12;100774.03;124880;1099;101887;-77
2023/08/10 03:07:08;;;;;;;20.20;6.77;;;;;;;16.42;70.04;100780.16;125118;1099;104213;-77
2023/08/10 03:09:41;;;;;;;18.37;6.20;;;;;;;16.39;70.76;100774.81;125138;1098;102038;-77
2023/08/10 03:12:12;;;;;;;;;;;;;;;16.34;71.37;100777.39;125242;1099;104236;-77
2023/08/10 03:14:43;;;;;;;19.47;6.03;;;;;;;16.27;70.97;100775.52;124665;1099;104437;-77
2023/08/10 03:17:15;;;;;;;18.97;6.20;;;;;;;16.33;70.85;100782.66;125091;1099;104216;-77
2023/08/10 03:19:47;;;;;;;19.50;6.10;;;;;;;16.30;71.09;100779.98;124653;1099;102035;-78
2023/08/10 03:22:18;;;;;;;18.50;7.13;;;;;;;16.31;71.19;100784.39;124699;1099;101920;-78
2023/08/10 03:24:51;;;;;;;16.33;6.20;;;;;;;16.31;71.36;100792.34;125269;1099;104284;-77
2023/08/10 03:27:22;;;;;;;16.30;6.43;;;;;;;16.33;71.53;100793.25;125164;1099;101938;-78
2023/08/10 03:29:53;;;;;;;14.60;5.83;;;;;;;16.38;71.63;100799.53;125103;1099;104223;-77
2023/08/10 03:32:25;;;;;;;20.60;6.57;;;;;;;16.38;71.66;100796.89;125280;1099;104201;-78
2023/08/10 03:34:56;;;;;;;19.43;6.27;;;;;;;16.40;71.62;100795.14;125333;1099;104197;-77
2023/08/10 03:37:28;;;;;;;17.03;6.00;;;;;;;16.44;71.43;100796.08;125202;1099;104188;-78
2023/08/10 03:39:59;;;;;;;18.87;6.50;;;;;;;16.49;71.45;100792.65;125424;1099;104214;-78
2023/08/10 03:42:36;;;;;;;17.63;5.60;;;;;;;16.59;72.00;100800.74;125515;1098;101820;-78
2023/08/10 03:45:15;;;;;;;13.60;6.20;;;;;;;16.61;71.91;100797.27;124795;1102;104352;-77
2023/08/10 03:47:46;;;;;;;16.53;6.17;;;;;;;16.62;72.32;100798.14;124748;1100;102141;-77
2023/08/10 03:50:17;;;;;;;16.97;6.10;;;;;;;16.58;72.04;100799.86;125292;1099;104204;-78
2023/08/10 03:52:49;;;;;;;17.07;7.17;;;;;;;16.55;72.00;100799.81;125202;1099;104233;-77
2023/08/10 03:55:21;;;;;;;16.03;6.20;;;;;;;16.56;72.31;100804.22;124501;1099;101836;-77
2023/08/10 03:57:55;;;;;;;18.33;6.70;;;;;;;16.58;72.24;100793.66;124686;1099;101893;-77
2023/08/10 04:00:27;;;;;;;14.67;6.00;;;;;;;16.61;72.57;100799.91;124613;1102;104224;-77
2023/08/10 04:02:59;;;;;;;17.60;6.63;;;;;;;16.66;72.06;100794.69;124745;1098;104197;-78
2023/08/10 04:05:31;;;;;;;12.70;5.63;;;;;;;16.74;72.16;100795.69;124714;1099;104232;-77
2023/08/10 04:08:04;;;;;;;21.00;6.30;;;;;;;16.81;72.79;100797.57;124572;1099;102380;-77
2023/08/10 04:10:35;;;;;;;13.20;6.00;;;;;;;16.86;72.04;100792.34;124758;1099;102025;-77
2023/08/10 04:13:07;;;;;;;14.63;6.13;;;;;;;16.91;72.09;100789.76;124810;1099;104207;-77
2023/08/10 04:15:38;;;;;;;17.73;7.23;;;;;;;16.97;72.78;100788.11;124590;1099;104169;-76
2023/08/10 04:18:10;;;;;;;16.23;6.20;;;;;;;16.96;72.25;100782.78;124788;1099;104248;-77
2023/08/10 04:20:41;;;;;;;14.30;6.13;;;;;;;16.98;72.57;100787.22;124774;1102;102051;-79
2023/08/10 04:23:13;;;;;;;16.17;6.57;;;;;;;17.03;72.97;100782.89;124811;1102;101859;-79
2023/08/10 04:25:45;;;;;;;19.13;6.47;;;;;;;17.10;72.73;100786.51;124898;1099;101881;-79
2023/08/10 04:28:16;;;;;;;13.57;5.67;;;;;;;17.17;72.83;100777.78;124860;1099;102128;-78
2023/08/10 04:30:47;;;;;;;17.97;6.27;;;;;;;17.22;72.55;100781.37;124968;1099;103076;-79
2023/08/10 04:33:19;;;;;;;15.60;6.10;;;;;;;17.24;72.51;100790.23;124949;1099;102016;-77
2023/08/10 04:35:50;;;;;;;16.23;6.40;;;;;;;17.25;72.82;100794.67;124846;1099;101984;-80
2023/08/10 04:38:21;;;;;;;15.43;6.90;;;;;;;17.25;72.58;100781.41;124887;1099;104168;-78
2023/08/10 04:40:53;;;;;;;17.70;6.83;;;;;;;17.33;72.66;100789.47;124841;1099;101919;-79
2023/08/10 04:43:24;;;;;;;20.27;6.87;;;;;;;17.39;72.48;100791.28;124772;1099;104262;-79
2023/08/10 04:45:56;;;;;;;17.33;6.80;;;;;;;17.45;72.42;100794.02;124770;1099;104223;-79
2023/08/10 04:48:27;;;;;;;15.23;6.83;;;;;;;17.54;72.10;100790.59;124821;1099;102050;-79
2023/08/10 04:50:59;;;;;;;16.67;6.77;;;;;;;17.65;72.42;100793.37;124749;1099;102051;-77
2023/08/10 04:53:30;;;;;;;18.17;6.37;;;;;;;17.72;72.22;100789.92;125223;1099;104242;-77
2023/08/10 04:56:06;;;;;;;18.77;6.20;;;;;;;17.77;72.12;100791.73;125271;1099;104187;-78
2023/08/10 04:58:37;;;;;;;17.73;6.57;;;;;;;17.81;71.96;100792.68;124657;1099;102015;-78
2023/08/10 05:01:13;;;;;;;18.37;6.77;;;;;;;17.85;72.08;100797.13;125408;1099;104216;-78
2023/08/10 05:03:45;;;;;;;13.83;6.03;;;;;;;17.87;71.97;100795.41;125459;1099;104313;-80
2023/08/10 05:06:16;;;;;;;16.83;6.03;;;;;;;17.88;72.07;100794.54;125246;1099;102028;-76
2023/08/10 05:08:47;;;;;;;20.63;7.17;;;;;;;17.88;71.87;100786.58;124878;1099;102300;-80
2023/08/10 05:11:19;;;;;;;20.77;6.53;;;;;;;17.90;72.22;100786.59;125954;1099;104274;-79
2023/08/10 05:13:50;;;;;;;19.70;5.97;;;;;;;17.93;72.03;100791.93;126461;1098;101916;-82
2023/08/10 05:16:22;;;;;;;17.20;6.23;;;;;;;17.96;71.94;100795.50;124850;1099;101922;-81
2023/08/10 05:18:57;;;;;;;16.70;6.10;;;;;;;18.02;72.33;100801.77;126311;1098;102097;-77
2023/08/10 05:21:28;;;;;;;15.80;5.93;;;;;;;18.08;72.03;100800.05;125919;1099;104175;-79
2023/08/10 05:24:00;;;;;;;22.50;6.80;;;;;;;18.15;71.96;100798.34;125476;1098;101963;-83
2023/08/10 05:26:34;;;;;;;22.37;6.43;;;;;;;18.18;71.73;100797.48;124898;1102;104188;-79
2023/08/10 05:29:07;;;;;;;22.00;6.57;;;;;;;18.17;71.84;100809.89;125736;1099;101932;-79
2023/08/10 05:31:39;;;;;;;16.13;6.50;;;;;;;18.15;71.71;100803.64;126471;1099;101931;-79
2023/08/10 05:34:11;;;;;;;15.83;6.20;;;;;;;18.14;71.65;100805.42;126340;1098;104083;-81
2023/08/10 05:36:49;;;;;;;20.87;6.00;;;;;;;18.17;72.41;100803.66;125439;1099;104235;-79
2023/08/10 05:39:21;;;;;;;19.17;6.60;;;;;;;18.23;71.85;100801.98;124803;1099;104195;-81
2023/08/10 05:41:56;;;;;;;17.87;6.43;;;;;;;18.31;71.54;100805.58;125554;1099;101974;-81
2023/08/10 05:44:27;;;;;;;20.07;6.10;;;;;;;18.38;71.32;100810.95;124781;1099;104255;-80
2023/08/10 05:47:03;;;;;;;21.33;6.23;;;;;;;18.42;71.23;100812.77;124802;1102;101874;-78
2023/08/10 05:49:38;;;;;;;15.03;5.60;;;;;;;18.53;71.51;100815.48;124884;1102;102346;-80
2023/08/10 05:52:10;;;;;;;14.77;5.67;;;;;;;18.58;71.33;100816.43;124835;1102;104159;-79
2023/08/10 05:54:44;;;;;;;18.67;6.00;;;;;;;18.63;71.00;100815.56;125491;1099;102109;-80
2023/08/10 05:57:18;;;;;;;13.72;5.35;;;;;;;18.72;70.93;100813.88;125415;1099;103682;-82
2023/08/10 05:59:53;;;;;;;11.83;5.43;;;;;;;18.77;70.99;100807.70;125644;1099;101728;-80
2023/08/10 06:02:27;;;;;;;16.07;5.73;;;;;;;18.86;71.35;100812.23;125299;1099;104172;-80
2023/08/10 06:05:06;;;;;;;21.67;6.97;;;;;;;18.95;70.95;100814.95;124974;1099;104224;-80
2023/08/10 06:07:41;;;;;;;16.70;6.50;;;;;;;19.07;70.86;100813.23;125308;1099;102145;-78
2023/08/10 06:10:15;;;;;;;15.60;7.03;;;;;;;19.17;70.90;100809.77;125941;1102;103516;-80
2023/08/10 06:13:02;;;;;;;23.60;6.90;;;;;;;19.29;71.17;100803.59;126271;1099;101765;-77
2023/08/10 06:15:36;;;;;;;20.10;6.53;;;;;;;19.45;70.15;100809.90;125456;1100;101813;-80
2023/08/10 06:18:14;;;;;;;15.90;6.63;;;;;;;19.59;70.74;100808.17;125779;1099;101887;-79
2023/08/10 06:20:49;;;;;;;20.20;6.63;;;;;;;19.77;70.25;100801.16;124510;1099;104191;-78
2023/08/10 06:23:22;;;;;;;15.57;6.17;;;;;;;20.00;70.90;100804.75;124650;1102;103187;-79
2023/08/10 06:25:56;;;;;;;18.07;6.30;;;;;;;20.20;70.16;100798.58;124700;1102;102017;-78
2023/08/10 06:28:29;;;;;;;15.20;6.23;;;;;;;20.38;70.18;100806.58;124810;1097;101948;-78
2023/08/10 06:31:03;;;;;;;13.43;6.20;;;;;;;20.55;69.54;100801.22;125237;1099;104133;-77
2023/08/10 06:33:35;;;;;;;13.67;6.30;;;;;;;20.71;68.82;100793.24;125308;1099;104245;-80
2023/08/10 06:36:11;;;;;;;16.00;6.23;;;;;;;20.91;68.76;100798.55;125285;1099;104193;-82
2023/08/10 06:38:46;;;;;;;21.43;6.37;;;;;;;21.09;68.52;100786.95;126068;1098;104197;-85
2023/08/10 06:41:20;;;;;;;15.00;6.07;;;;;;;21.23;67.77;100782.45;125441;1099;102030;-78
2023/08/10 06:44:05;;;;;;;15.57;5.90;;;;;;;21.34;67.57;100793.08;125305;1099;101887;-80
2023/08/10 06:46:50;;;;;;;10.37;5.37;;;;;;;21.43;67.30;100787.71;125761;1099;101826;-78
2023/08/10 06:49:31;;;;;;;16.87;5.70;;;;;;;21.51;66.63;100785.91;125269;1097;104207;-77
2023/08/10 06:52:09;;;;;;;14.57;5.63;;;;;;;21.67;67.12;100777.83;126072;1102;101679;-80
2023/08/10 06:54:43;;;;;;;15.60;5.40;;;;;;;21.79;66.94;100787.56;125971;1099;102109;-80
2023/08/10 06:57:16;;;;;;;13.80;5.80;;;;;;;21.88;65.92;100787.52;126018;1099;104173;-81
2023/08/10 06:59:50;;;;;;;11.20;5.20;;;;;;;21.99;65.78;100784.77;125297;1099;104188;-82
2023/08/10 07:02:27;;;;;;;18.43;5.83;;;;;;;22.10;64.91;100774.01;124907;1099;101921;-80
2023/08/10 07:05:03;;;;;;;14.23;5.40;;;;;;;22.20;63.46;100781.91;124697;1102;101996;-80
2023/08/10 07:07:35;;;;;;;18.97;5.57;;;;;;;22.35;63.80;100780.95;125990;1098;104235;-80
2023/08/10 07:10:09;;;;;;;16.20;5.23;;;;;;;22.48;63.97;100773.70;124718;1099;111254;-82
2023/08/10 07:12:42;;;;;;;9.83;4.20;;;;;;;22.58;64.21;100775.40;124795;1102;102385;-78
2023/08/10 07:15:17;;;;;;;12.00;4.55;;;;;;;22.72;62.89;100774.36;125251;1099;102091;-79
2023/08/10 07:17:51;;;;;;;9.03;4.17;;;;;;;22.84;62.35;100776.91;124784;1099;102534;-76
2023/08/10 07:20:22;;;;;;;11.13;4.80;;;;;;;23.00;62.57;100777.66;124701;1099;104226;-75
2023/08/10 07:22:56;;;;;;;9.87;4.30;;;;;;;23.15;62.17;100772.16;124603;1102;104826;-76
2023/08/10 07:25:28;;;;;;;9.50;4.13;;;;;;;23.28;61.75;100767.53;124808;1102;101936;-76
2023/08/10 07:28:02;;;;;;;8.53;4.10;;;;;;;23.44;60.80;100761.98;124938;1099;101973;-77
2023/08/10 07:30:33;;;;;;;6.53;4.20;;;;;;;23.63;60.60;100758.13;125567;1102;104242;-76
2023/08/10 07:33:11;;;;;;;7.57;4.10;;;;;;;23.75;59.93;100757.08;125357;1100;101771;-78
2023/08/10 07:35:49;;;;;;;9.90;4.20;;;;;;;23.93;60.32;100757.73;125426;1102;104172;-79
2023/08/10 07:38:21;;;;;;;9.27;4.00;;;;;;;24.24;57.82;100755.44;124806;1102;104294;-79
2023/08/10 07:40:53;;;;;;;7.13;4.10;;;;;;;24.50;56.86;100754.98;125364;1099;118634;-79
2023/08/10 07:43:31;;;;;;;9.20;3.87;;;;;;;24.70;57.32;100757.34;124682;1099;104181;-78
2023/08/10 07:46:04;;;;;;;7.70;3.70;;;;;;;24.83;54.18;100744.58;124865;1100;102016;-81
2023/08/10 07:48:36;;;;;;;11.70;3.98;;;;;;;24.96;54.37;100747.02;124959;1099;101881;-78
2023/08/10 07:51:10;;;;;;;5.93;3.27;;;;;;;25.07;54.92;100747.67;125405;1098;101842;-79
2023/08/10 07:53:42;;;;;;;11.73;4.43;;;;;;;25.10;53.54;100743.15;125063;1099;104166;-76
2023/08/10 07:56:19;;;;;;;11.53;3.98;;;;;;;25.14;53.87;100748.45;126201;1098;104210;-79
2023/08/10 07:58:55;;;;;;;7.17;3.30;;;;;;;25.19;53.99;100755.48;125410;1099;104242;-79
2023/08/10 08:01:27;;;;;;;4.70;3.30;;;;;;;25.23;53.02;100750.95;126146;1099;111748;-80
2023/08/10 08:03:59;;;;;;;6.27;3.20;;;;;;;25.28;52.73;100744.58;126067;1100;102305;-85
2023/08/10 08:06:30;;;;;;;7.37;3.27;;;;;;;25.43;51.76;100754.12;127372;1097;101911;-80
2023/08/10 08:09:03;;;;;;;15.57;3.90;;;;;;;25.55;51.63;100746.70;124756;1099;104338;-81
2023/08/10 08:11:36;;;;;;;6.33;3.10;;;;;;;25.67;51.61;100748.23;125365;1099;104208;-79
2023/08/10 08:14:08;;;;;;;5.55;3.47;;;;;;;25.78;51.69;100747.05;125271;1099;104239;-77
2023/08/10 08:16:40;;;;;;;6.93;2.90;;;;;;;25.97;51.84;100741.23;125152;1099;101936;-78
2023/08/10 08:19:12;;;;;;;5.63;3.17;;;;;;;26.07;51.15;100741.92;125419;1099;104182;-80
2023/08/10 08:21:46;;;;;;;7.47;3.20;;;;;;;26.07;48.70;100747.30;125393;1102;102094;-77
2023/08/10 08:24:23;;;;;;;7.40;3.30;;;;;;;26.11;49.39;100743.62;125040;1099;102016;-77
2023/08/10 08:26:58;;;;;;;5.67;3.10;;;;;;;26.06;49.30;100734.80;124685;1102;104203;-79
2023/08/10 08:29:37;;;;;;;6.97;3.20;;;;;;;26.05;49.14;100736.58;125162;1098;101852;-79
2023/08/10 08:32:12;;;;;;;3.47;2.80;;;;;;;26.15;48.99;100729.19;124768;1102;118504;-80
2023/08/10 08:34:44;;;;;;;6.37;3.20;;;;;;;26.28;48.33;100729.75;125215;1102;101906;-85
2023/08/10 08:37:16;;;;;;;6.00;3.30;;;;;;;26.46;48.06;100723.89;125598;1099;101872;-79
2023/08/10 08:40:01;;;;;;;4.83;2.90;;;;;;;26.63;48.36;100725.22;126365;1099;101493;-85
2023/08/10 08:42:34;;;;;;;5.43;3.10;;;;;;;26.59;46.51;100743.27;126011;1101;101626;-85
2023/08/10 08:45:08;;;;;;;5.73;3.00;;;;;;;26.60;45.31;100730.69;127490;1098;101909;-79
2023/08/10 08:47:40;;;;;;;6.10;2.63;;;;;;;26.68;46.54;100717.96;126208;1098;101736;-75
2023/08/10 08:50:16;;;;;;;5.53;3.07;;;;;;;26.75;46.14;100716.84;126024;1099;102062;-78
2023/08/10 08:52:49;;;;;;;7.17;3.00;;;;;;;26.88;45.44;100711.98;125511;1099;111426;-81
2023/08/10 08:55:24;;;;;;;5.33;3.00;;;;;;;27.02;46.11;100708.90;125380;1099;101995;-77
2023/08/10 08:57:55;;;;;;;7.55;2.90;;;;;;;27.18;45.00;100704.84;125269;1099;104258;-77
2023/08/10 09:00:30;;;;;;;5.60;2.80;;;;;;;27.16;44.28;100714.78;125157;1098;104190;-79
2023/08/10 09:03:08;;;;;;;4.00;2.90;;;;;;;27.00;44.63;100703.55;124677;1101;102012;-75
2023/08/10 09:05:40;;;;;;;5.10;2.70;;;;;;;26.96;44.47;100709.08;125180;1099;102321;-77
2023/08/10 09:08:13;;;;;;;4.87;2.80;;;;;;;26.94;43.65;100719.89;124919;1098;104258;-76
2023/08/10 09:10:47;;;;;;;3.57;2.77;;;;;;;26.98;44.12;100709.94;125142;1099;104183;-74
2023/08/10 09:13:21;;;;;;;6.90;2.87;;;;;;;26.92;43.47;100702.91;124641;1102;107866;-80
2023/08/10 09:16:07;;;;;;;4.90;2.90;;;;;;;26.72;42.18;100698.09;124923;1099;102109;-78
2023/08/10 09:18:41;;;;;;;6.40;3.00;;;;;;;26.67;43.30;100710.80;125266;1099;104198;-76
2023/08/10 09:21:18;;;;;;;4.70;2.90;;;;;;;26.74;42.58;100707.03;125043;1098;102073;-78
2023/08/10 09:23:57;;;;;;;6.40;2.80;;;;;;;26.80;42.48;100697.87;124441;1102;120656;-77
2023/08/10 09:26:34;;;;;;;5.87;3.20;;;;;;;26.77;42.21;100698.87;125019;1099;104520;-77
2023/08/10 09:29:06;;;;;;;4.40;3.00;;;;;;;26.59;42.53;100699.34;124769;1099;101884;-76
2023/08/10 09:31:42;;;;;;;4.62;3.00;;;;;;;26.53;42.56;100700.38;124752;1098;104270;-77
2023/08/10 09:34:22;;;;;;;8.05;3.60;;;;;;;26.63;41.70;100693.84;125299;1099;104217;-77
2023/08/10 09:37:00;;;;;;;6.27;3.00;;;;;;;26.77;42.48;100693.48;125264;1099;104292;-78
2023/08/10 09:39:33;;;;;;;6.57;3.33;;;;;;;26.87;41.35;100703.04;125314;1102;102076;-78
2023/08/10 09:42:05;;;;;;;9.13;3.17;;;;;;;26.83;41.79;100693.31;125533;1099;102583;-81
2023/08/10 09:44:51;;;;;;;10.50;3.07;;;;;;;26.80;41.21;100690.70;126251;1099;104307;-78
2023/08/10 09:47:23;;;;;;;4.92;2.92;;;;;;;26.67;41.55;100689.27;125425;1099;104172;-80
2023/08/10 09:50:03;;;;;;;4.87;2.87;;;;;;;26.70;41.71;100681.11;125523;1102;104178;-78
2023/08/10 09:52:38;;;;;;;5.00;2.80;;;;;;;26.77;40.19;100674.64;125852;1099;104246;-80
2023/08/10 09:55:17;;;;;;;5.60;2.77;;;;;;;26.94;40.46;100675.94;125506;1101;104271;-81
2023/08/10 09:57:53;;;;;;;6.23;3.07;;;;;;;27.01;39.72;100680.23;125443;1099;102043;-82
2023/08/10 10:00:24;;;;;;;5.03;2.60;;;;;;;27.01;39.20;100672.15;125626;1099;102086;-81
2023/08/10 10:03:01;;;;;;;4.50;2.63;;;;;;;27.03;39.27;100679.23;126561;1098;102166;-82
2023/08/10 10:05:37;;;;;;;3.60;2.27;;;;;;;27.23;39.55;100680.45;126210;1099;104082;-86
2023/08/10 10:08:17;;;;;;;3.13;2.23;;;;;;;27.32;38.76;100682.03;125493;1099;101960;-79
2023/08/10 10:10:49;;;;;;;4.47;2.10;;;;;;;27.53;38.57;100685.84;125804;1099;104211;-77
2023/08/10 10:13:21;;;;;;;4.83;2.80;;;;;;;27.49;38.86;100690.45;126889;1099;104239;-76
2023/08/10 10:15:55;;;;;;;3.83;2.63;;;;;;;27.40;38.09;100685.36;126254;1099;101971;-83
2023/08/10 10:18:25;;;;;;;;;;;;;;;27.38;37.49;100681.84;126365;1098;101981;-78
2023/08/10 10:20:57;;;;;;;3.60;2.43;;;;;;;27.33;37.20;100690.06;125784;1099;104197;-83
2023/08/10 10:23:32;;;;;;;4.77;2.40;;;;;;;27.25;37.13;100679.49;125355;1099;104241;-84
2023/08/10 10:26:06;;;;;;;5.70;2.40;;;;;;;27.30;36.66;100678.44;125665;1102;101906;-80
2023/08/10 10:28:40;;;;;;;4.40;2.50;;;;;;;27.36;36.90;100675.59;125624;1099;104127;-80
2023/08/10 10:31:13;;;;;;;3.50;2.47;;;;;;;27.42;36.78;100678.09;126378;1099;101830;-81
2023/08/10 10:33:57;;;;;;;4.22;2.37;;;;;;;27.51;37.11;100674.24;126309;1099;102349;-81
2023/08/10 10:36:32;;;;;;;4.23;2.33;;;;;;;27.56;36.60;100665.06;125445;1099;101932;-77
2023/08/10 10:39:11;;;;;;;4.87;2.40;;;;;;;27.74;36.26;100660.02;125158;1099;101873;-79
2023/08/10 10:41:45;;;;;;;4.87;2.83;;;;;;;27.99;36.58;100665.50;125981;1098;104245;-79
2023/08/10 10:44:15;;;;;;;;;;;;;;;28.16;35.28;100662.22;125255;1098;104179;-77
2023/08/10 10:46:50;;;;;;;5.10;2.77;;;;;;;28.30;36.23;100657.22;125916;1099;101974;-81
2023/08/10 10:49:24;;;;;;;8.93;3.12;;;;;;;28.47;36.29;100661.11;126527;1096;102166;-78
2023/08/10 10:52:00;;;;;;;2.80;2.40;;;;;;;28.56;36.26;100660.77;125096;1099;104262;-78
2023/08/10 10:54:38;;;;;;;3.53;2.50;;;;;;;28.55;35.12;100664.43;125850;1099;103027;-80
2023/08/10 10:57:11;;;;;;;6.93;2.53;;;;;;;28.46;35.28;100653.97;125281;1098;104223;-78
2023/08/10 10:59:43;;;;;;;4.30;2.40;;;;;;;28.51;35.52;100655.54;124727;1102;104197;-79
2023/08/10 11:02:15;;;;;;;3.93;2.70;;;;;;;28.48;35.35;100652.95;124867;1099;102000;-84
2023/08/10 11:04:49;;;;;;;5.33;2.60;;;;;;;28.48;35.18;100649.38;127109;1098;101910;-88
2023/08/10 11:07:21;;;;;;;3.20;2.33;;;;;;;28.48;35.34;100646.69;127282;1098;101914;-86
2023/08/10 11:09:55;;;;;;;7.20;2.70;;;;;;;28.52;35.09;100645.65;126158;1102;101883;-83
2023/08/10 11:12:30;;;;;;;5.00;2.70;;;;;;;28.45;34.89;100639.56;126669;1098;104214;-80
2023/08/10 11:15:02;;;;;;;5.65;2.70;;;;;;;28.39;34.85;100638.92;124875;1101;104236;-78
2023/08/10 11:17:35;;;;;;;3.35;2.65;;;;;;;28.30;34.14;100638.33;126303;1098;104163;-77
2023/08/10 11:20:15;;;;;;;4.10;2.50;;;;;;;28.23;34.35;100643.99;125654;1102;104802;-78
2023/08/10 11:22:51;;;;;;;6.63;2.70;;;;;;;28.09;34.13;100652.57;125580;1099;102533;-77
2023/08/10 11:25:29;;;;;;;4.07;2.00;;;;;;;27.94;33.40;100653.93;125737;1099;104217;-78
2023/08/10 11:28:02;;;;;;;3.10;2.30;;;;;;;27.90;33.83;100644.20;127321;1098;101718;-76
2023/08/10 11:30:39;;;;;;;3.30;2.15;;;;;;;27.90;33.98;100642.38;125857;1098;104246;-78
2023/08/10 11:33:11;;;;;;;3.40;2.30;;;;;;;27.95;33.95;100639.56;127376;1098;101922;-77